sensor_id;sensor_type;location;lat;lon;timestamp;P1;durP1;ratioP1;P2;durP2;ratioP2
18320;SDS011;54904;54.350;18.664;2023-10-19T00:00:57;1.00;;;0.53;;
18320;SDS011;54904;54.350;18.664;2023-10-19T00:03:25;0.43;;;0.43;;
18320;SDS011;54904;54.350;18.664;2023-10-19T00:05:52;0.50;;;0.50;;
18320;SDS011;54904;54.350;18.664;2023-10-19T00:08:20;1.47;;;0.70;;
18320;SDS011;54904;54.350;18.664;2023-10-19T00:10:48;0.97;;;0.60;;
18320;SDS011;54904;54.350;18.664;2023-10-19T00:13:19;0.50;;;0.50;;
18320;SDS011;54904;54.350;18.664;2023-10-19T00:15:47;0.40;;;0.40;;
18320;SDS011;54904;54.350;18.664;2023-10-19T00:18:18;1.07;;;0.50;;
18320;SDS011;54904;54.350;18.664;2023-10-19T00:20:50;0.50;;;0.50;;
18320;SDS011;54904;54.350;18.664;2023-10-19T00:23:18;0.30;;;0.30;;
18320;SDS011;54904;54.350;18.664;2023-10-19T00:25:54;0.40;;;0.40;;
18320;SDS011;54904;54.350;18.664;2023-10-19T00:28:21;1.07;;;0.50;;
18320;SDS011;54904;54.350;18.664;2023-10-19T00:30:50;0.50;;;0.50;;
18320;SDS011;54904;54.350;18.664;2023-10-19T00:33:19;0.40;;;0.40;;
18320;SDS011;54904;54.350;18.664;2023-10-19T00:35:47;0.40;;;0.40;;
18320;SDS011;54904;54.350;18.664;2023-10-19T00:38:23;0.37;;;0.37;;
18320;SDS011;54904;54.350;18.664;2023-10-19T00:41:06;0.20;;;0.20;;
18320;SDS011;54904;54.350;18.664;2023-10-19T00:43:39;0.43;;;0.43;;
18320;SDS011;54904;54.350;18.664;2023-10-19T00:46:11;0.40;;;0.40;;
18320;SDS011;54904;54.350;18.664;2023-10-19T00:48:49;0.20;;;0.20;;
18320;SDS011;54904;54.350;18.664;2023-10-19T00:51:19;0.40;;;0.30;;
18320;SDS011;54904;54.350;18.664;2023-10-19T00:54:07;0.30;;;0.30;;
18320;SDS011;54904;54.350;18.664;2023-10-19T00:56:38;0.40;;;0.40;;
18320;SDS011;54904;54.350;18.664;2023-10-19T00:59:13;0.40;;;0.40;;
18320;SDS011;54904;54.350;18.664;2023-10-19T01:01:49;0.40;;;0.40;;
18320;SDS011;54904;54.350;18.664;2023-10-19T01:04:20;0.40;;;0.40;;
18320;SDS011;54904;54.350;18.664;2023-10-19T01:06:50;0.30;;;0.30;;
18320;SDS011;54904;54.350;18.664;2023-10-19T01:09:37;0.40;;;0.40;;
18320;SDS011;54904;54.350;18.664;2023-10-19T01:12:09;0.50;;;0.50;;
18320;SDS011;54904;54.350;18.664;2023-10-19T01:15:03;0.30;;;0.30;;
18320;SDS011;54904;54.350;18.664;2023-10-19T01:17:33;1.07;;;0.40;;
18320;SDS011;54904;54.350;18.664;2023-10-19T01:20:07;0.33;;;0.33;;
18320;SDS011;54904;54.350;18.664;2023-10-19T01:22:47;0.50;;;0.40;;
18320;SDS011;54904;54.350;18.664;2023-10-19T01:25:18;0.40;;;0.40;;
18320;SDS011;54904;54.350;18.664;2023-10-19T01:27:51;0.40;;;0.40;;
18320;SDS011;54904;54.350;18.664;2023-10-19T01:30:23;1.30;;;0.40;;
18320;SDS011;54904;54.350;18.664;2023-10-19T01:32:52;0.47;;;0.47;;
18320;SDS011;54904;54.350;18.664;2023-10-19T01:35:19;0.40;;;0.40;;
18320;SDS011;54904;54.350;18.664;2023-10-19T01:37:47;0.40;;;0.40;;
18320;SDS011;54904;54.350;18.664;2023-10-19T01:40:14;0.40;;;0.40;;
18320;SDS011;54904;54.350;18.664;2023-10-19T01:42:46;0.40;;;0.40;;
18320;SDS011;54904;54.350;18.664;2023-10-19T01:45:12;1.30;;;0.40;;
18320;SDS011;54904;54.350;18.664;2023-10-19T01:47:40;0.50;;;0.50;;
18320;SDS011;54904;54.350;18.664;2023-10-19T01:50:10;0.50;;;0.40;;
18320;SDS011;54904;54.350;18.664;2023-10-19T01:52:45;0.40;;;0.40;;
18320;SDS011;54904;54.350;18.664;2023-10-19T01:55:13;0.30;;;0.30;;
18320;SDS011;54904;54.350;18.664;2023-10-19T01:57:45;0.37;;;0.37;;
18320;SDS011;54904;54.350;18.664;2023-10-19T02:00:15;0.63;;;0.40;;
18320;SDS011;54904;54.350;18.664;2023-10-19T02:02:48;0.37;;;0.37;;
18320;SDS011;54904;54.350;18.664;2023-10-19T02:05:15;0.40;;;0.40;;
18320;SDS011;54904;54.350;18.664;2023-10-19T02:07:44;0.37;;;0.37;;
18320;SDS011;54904;54.350;18.664;2023-10-19T02:10:13;0.73;;;0.40;;
18320;SDS011;54904;54.350;18.664;2023-10-19T02:12:41;0.40;;;0.40;;
18320;SDS011;54904;54.350;18.664;2023-10-19T02:15:11;0.30;;;0.30;;
18320;SDS011;54904;54.350;18.664;2023-10-19T02:17:40;0.40;;;0.40;;
18320;SDS011;54904;54.350;18.664;2023-10-19T02:20:07;0.40;;;0.40;;
18320;SDS011;54904;54.350;18.664;2023-10-19T02:22:37;3.30;;;0.30;;
18320;SDS011;54904;54.350;18.664;2023-10-19T02:25:05;0.27;;;0.27;;
18320;SDS011;54904;54.350;18.664;2023-10-19T02:27:33;0.40;;;0.30;;
18320;SDS011;54904;54.350;18.664;2023-10-19T02:30:00;0.40;;;0.40;;
18320;SDS011;54904;54.350;18.664;2023-10-19T02:32:28;0.30;;;0.30;;
18320;SDS011;54904;54.350;18.664;2023-10-19T02:34:57;0.37;;;0.37;;
18320;SDS011;54904;54.350;18.664;2023-10-19T02:37:26;0.57;;;0.50;;
18320;SDS011;54904;54.350;18.664;2023-10-19T02:39:53;0.50;;;0.50;;
18320;SDS011;54904;54.350;18.664;2023-10-19T02:42:20;0.57;;;0.40;;
18320;SDS011;54904;54.350;18.664;2023-10-19T02:44:49;0.87;;;0.50;;
18320;SDS011;54904;54.350;18.664;2023-10-19T02:47:16;0.67;;;0.60;;
18320;SDS011;54904;54.350;18.664;2023-10-19T02:49:42;1.03;;;0.70;;
18320;SDS011;54904;54.350;18.664;2023-10-19T02:52:19;0.87;;;0.50;;
18320;SDS011;54904;54.350;18.664;2023-10-19T02:54:45;0.50;;;0.50;;
18320;SDS011;54904;54.350;18.664;2023-10-19T02:57:12;1.03;;;0.87;;
18320;SDS011;54904;54.350;18.664;2023-10-19T02:59:39;0.93;;;0.90;;
18320;SDS011;54904;54.350;18.664;2023-10-19T03:02:07;0.73;;;0.70;;
18320;SDS011;54904;54.350;18.664;2023-10-19T03:04:42;0.60;;;0.60;;
18320;SDS011;54904;54.350;18.664;2023-10-19T03:07:10;1.23;;;0.80;;
18320;SDS011;54904;54.350;18.664;2023-10-19T03:09:37;0.60;;;0.60;;
18320;SDS011;54904;54.350;18.664;2023-10-19T03:12:05;0.57;;;0.57;;
18320;SDS011;54904;54.350;18.664;2023-10-19T03:14:35;1.23;;;0.80;;
18320;SDS011;54904;54.350;18.664;2023-10-19T03:17:02;1.30;;;0.80;;
18320;SDS011;54904;54.350;18.664;2023-10-19T03:19:33;0.90;;;0.90;;
18320;SDS011;54904;54.350;18.664;2023-10-19T03:22:00;1.17;;;0.97;;
18320;SDS011;54904;54.350;18.664;2023-10-19T03:24:28;1.33;;;1.07;;
18320;SDS011;54904;54.350;18.664;2023-10-19T03:27:06;3.03;;;1.17;;
18320;SDS011;54904;54.350;18.664;2023-10-19T03:29:38;1.13;;;0.90;;
18320;SDS011;54904;54.350;18.664;2023-10-19T03:32:05;1.37;;;1.20;;
18320;SDS011;54904;54.350;18.664;2023-10-19T03:34:35;0.90;;;0.90;;
18320;SDS011;54904;54.350;18.664;2023-10-19T03:37:03;1.00;;;0.90;;
18320;SDS011;54904;54.350;18.664;2023-10-19T03:39:32;1.07;;;1.07;;
18320;SDS011;54904;54.350;18.664;2023-10-19T03:42:03;1.40;;;0.80;;
18320;SDS011;54904;54.350;18.664;2023-10-19T03:44:34;1.30;;;1.20;;
18320;SDS011;54904;54.350;18.664;2023-10-19T03:47:15;0.80;;;0.80;;
18320;SDS011;54904;54.350;18.664;2023-10-19T03:49:47;1.63;;;0.73;;
18320;SDS011;54904;54.350;18.664;2023-10-19T03:52:15;1.13;;;1.10;;
18320;SDS011;54904;54.350;18.664;2023-10-19T03:54:50;1.27;;;1.07;;
18320;SDS011;54904;54.350;18.664;2023-10-19T03:57:18;1.10;;;1.00;;
18320;SDS011;54904;54.350;18.664;2023-10-19T03:59:48;0.87;;;0.87;;
18320;SDS011;54904;54.350;18.664;2023-10-19T04:02:18;1.27;;;1.17;;
18320;SDS011;54904;54.350;18.664;2023-10-19T04:04:47;1.70;;;1.00;;
18320;SDS011;54904;54.350;18.664;2023-10-19T04:07:16;0.80;;;0.80;;
18320;SDS011;54904;54.350;18.664;2023-10-19T04:09:46;1.07;;;0.83;;
18320;SDS011;54904;54.350;18.664;2023-10-19T04:12:54;0.80;;;0.80;;
18320;SDS011;54904;54.350;18.664;2023-10-19T04:15:25;1.70;;;1.07;;
18320;SDS011;54904;54.350;18.664;2023-10-19T04:17:53;0.80;;;0.80;;
18320;SDS011;54904;54.350;18.664;2023-10-19T04:20:25;1.00;;;0.90;;
18320;SDS011;54904;54.350;18.664;2023-10-19T04:23:07;1.13;;;1.00;;
18320;SDS011;54904;54.350;18.664;2023-10-19T04:25:36;0.90;;;0.90;;
18320;SDS011;54904;54.350;18.664;2023-10-19T04:28:03;1.57;;;1.10;;
18320;SDS011;54904;54.350;18.664;2023-10-19T04:30:31;1.20;;;1.10;;
18320;SDS011;54904;54.350;18.664;2023-10-19T04:33:01;1.23;;;1.00;;
18320;SDS011;54904;54.350;18.664;2023-10-19T04:35:35;1.20;;;1.07;;
18320;SDS011;54904;54.350;18.664;2023-10-19T04:38:03;1.53;;;1.40;;
18320;SDS011;54904;54.350;18.664;2023-10-19T04:40:32;1.17;;;1.03;;
18320;SDS011;54904;54.350;18.664;2023-10-19T04:43:02;1.50;;;1.40;;
18320;SDS011;54904;54.350;18.664;2023-10-19T04:45:30;1.50;;;1.30;;
18320;SDS011;54904;54.350;18.664;2023-10-19T04:47:57;1.57;;;1.33;;
18320;SDS011;54904;54.350;18.664;2023-10-19T04:50:25;1.40;;;1.30;;
18320;SDS011;54904;54.350;18.664;2023-10-19T04:52:54;1.37;;;1.27;;
18320;SDS011;54904;54.350;18.664;2023-10-19T04:55:21;1.40;;;1.30;;
18320;SDS011;54904;54.350;18.664;2023-10-19T04:57:48;1.47;;;1.37;;
18320;SDS011;54904;54.350;18.664;2023-10-19T05:00:16;2.47;;;1.73;;
18320;SDS011;54904;54.350;18.664;2023-10-19T05:02:46;2.17;;;1.90;;
18320;SDS011;54904;54.350;18.664;2023-10-19T05:05:13;1.50;;;1.40;;
18320;SDS011;54904;54.350;18.664;2023-10-19T05:07:42;1.87;;;1.60;;
18320;SDS011;54904;54.350;18.664;2023-10-19T05:10:10;1.60;;;1.50;;
18320;SDS011;54904;54.350;18.664;2023-10-19T05:12:37;3.37;;;2.33;;
18320;SDS011;54904;54.350;18.664;2023-10-19T05:15:05;2.50;;;2.30;;
18320;SDS011;54904;54.350;18.664;2023-10-19T05:17:33;2.47;;;2.27;;
18320;SDS011;54904;54.350;18.664;2023-10-19T05:20:00;2.90;;;2.40;;
18320;SDS011;54904;54.350;18.664;2023-10-19T05:22:28;3.27;;;2.60;;
18320;SDS011;54904;54.350;18.664;2023-10-19T05:24:57;3.80;;;2.70;;
18320;SDS011;54904;54.350;18.664;2023-10-19T05:27:30;3.27;;;2.80;;
18320;SDS011;54904;54.350;18.664;2023-10-19T05:29:57;2.20;;;2.00;;
18320;SDS011;54904;54.350;18.664;2023-10-19T05:32:24;2.10;;;1.90;;
18320;SDS011;54904;54.350;18.664;2023-10-19T05:34:51;3.80;;;1.97;;
18320;SDS011;54904;54.350;18.664;2023-10-19T05:37:18;2.47;;;1.70;;
18320;SDS011;54904;54.350;18.664;2023-10-19T05:39:45;2.23;;;1.60;;
18320;SDS011;54904;54.350;18.664;2023-10-19T05:42:13;2.67;;;1.70;;
18320;SDS011;54904;54.350;18.664;2023-10-19T05:44:41;2.97;;;1.40;;
18320;SDS011;54904;54.350;18.664;2023-10-19T05:47:08;2.63;;;1.40;;
18320;SDS011;54904;54.350;18.664;2023-10-19T05:49:35;1.60;;;1.20;;
18320;SDS011;54904;54.350;18.664;2023-10-19T05:52:02;1.20;;;1.10;;
18320;SDS011;54904;54.350;18.664;2023-10-19T05:54:30;2.57;;;1.40;;
18320;SDS011;54904;54.350;18.664;2023-10-19T05:56:59;2.13;;;1.50;;
18320;SDS011;54904;54.350;18.664;2023-10-19T05:59:27;2.03;;;1.53;;
18320;SDS011;54904;54.350;18.664;2023-10-19T06:02:00;2.60;;;1.23;;
18320;SDS011;54904;54.350;18.664;2023-10-19T06:04:27;1.63;;;1.10;;
18320;SDS011;54904;54.350;18.664;2023-10-19T06:06:57;3.00;;;1.60;;
18320;SDS011;54904;54.350;18.664;2023-10-19T06:09:24;1.63;;;1.50;;
18320;SDS011;54904;54.350;18.664;2023-10-19T06:11:56;2.80;;;1.53;;
18320;SDS011;54904;54.350;18.664;2023-10-19T06:14:24;3.77;;;1.40;;
18320;SDS011;54904;54.350;18.664;2023-10-19T06:16:51;1.77;;;1.33;;
18320;SDS011;54904;54.350;18.664;2023-10-19T06:19:19;3.27;;;1.70;;
18320;SDS011;54904;54.350;18.664;2023-10-19T06:21:46;3.07;;;1.60;;
18320;SDS011;54904;54.350;18.664;2023-10-19T06:24:13;2.97;;;1.53;;
18320;SDS011;54904;54.350;18.664;2023-10-19T06:26:42;3.77;;;1.40;;
18320;SDS011;54904;54.350;18.664;2023-10-19T06:29:09;3.57;;;1.40;;
18320;SDS011;54904;54.350;18.664;2023-10-19T06:31:36;1.90;;;1.03;;
18320;SDS011;54904;54.350;18.664;2023-10-19T06:34:03;2.13;;;1.30;;
18320;SDS011;54904;54.350;18.664;2023-10-19T06:36:34;2.00;;;1.40;;
18320;SDS011;54904;54.350;18.664;2023-10-19T06:39:01;2.93;;;1.40;;
18320;SDS011;54904;54.350;18.664;2023-10-19T06:41:31;2.30;;;1.87;;
18320;SDS011;54904;54.350;18.664;2023-10-19T06:43:59;1.90;;;1.60;;
18320;SDS011;54904;54.350;18.664;2023-10-19T06:46:27;0.90;;;0.90;;
18320;SDS011;54904;54.350;18.664;2023-10-19T06:48:56;1.00;;;1.00;;
18320;SDS011;54904;54.350;18.664;2023-10-19T06:51:25;1.53;;;0.93;;
18320;SDS011;54904;54.350;18.664;2023-10-19T06:53:54;0.90;;;0.90;;
18320;SDS011;54904;54.350;18.664;2023-10-19T06:56:21;0.80;;;0.80;;
18320;SDS011;54904;54.350;18.664;2023-10-19T06:58:48;1.53;;;1.10;;
18320;SDS011;54904;54.350;18.664;2023-10-19T07:01:14;1.27;;;1.17;;
18320;SDS011;54904;54.350;18.664;2023-10-19T07:03:43;1.20;;;1.10;;
18320;SDS011;54904;54.350;18.664;2023-10-19T07:06:10;1.23;;;1.13;;
18320;SDS011;54904;54.350;18.664;2023-10-19T07:08:38;2.17;;;1.77;;
18320;SDS011;54904;54.350;18.664;2023-10-19T07:11:08;3.03;;;1.83;;
18320;SDS011;54904;54.350;18.664;2023-10-19T07:13:35;2.37;;;1.80;;
18320;SDS011;54904;54.350;18.664;2023-10-19T07:16:03;1.53;;;1.43;;
18320;SDS011;54904;54.350;18.664;2023-10-19T07:18:30;1.40;;;1.30;;
18320;SDS011;54904;54.350;18.664;2023-10-19T07:20:57;1.60;;;1.10;;
18320;SDS011;54904;54.350;18.664;2023-10-19T07:23:28;0.70;;;0.70;;
18320;SDS011;54904;54.350;18.664;2023-10-19T07:25:55;1.80;;;0.87;;
18320;SDS011;54904;54.350;18.664;2023-10-19T07:28:26;0.83;;;0.83;;
18320;SDS011;54904;54.350;18.664;2023-10-19T07:30:53;1.40;;;1.00;;
18320;SDS011;54904;54.350;18.664;2023-10-19T07:33:21;2.30;;;1.10;;
18320;SDS011;54904;54.350;18.664;2023-10-19T07:35:49;1.40;;;0.90;;
18320;SDS011;54904;54.350;18.664;2023-10-19T07:38:20;17.47;;;2.50;;
18320;SDS011;54904;54.350;18.664;2023-10-19T07:40:48;4.07;;;1.30;;
18320;SDS011;54904;54.350;18.664;2023-10-19T07:43:18;1.50;;;0.90;;
18320;SDS011;54904;54.350;18.664;2023-10-19T07:45:48;3.47;;;1.10;;
18320;SDS011;54904;54.350;18.664;2023-10-19T07:48:15;1.83;;;0.90;;
18320;SDS011;54904;54.350;18.664;2023-10-19T07:50:42;0.73;;;0.73;;
18320;SDS011;54904;54.350;18.664;2023-10-19T07:53:10;0.90;;;0.90;;
18320;SDS011;54904;54.350;18.664;2023-10-19T07:55:37;0.90;;;0.90;;
18320;SDS011;54904;54.350;18.664;2023-10-19T07:58:07;3.50;;;1.23;;
18320;SDS011;54904;54.350;18.664;2023-10-19T08:00:35;1.03;;;0.93;;
18320;SDS011;54904;54.350;18.664;2023-10-19T08:03:04;0.63;;;0.63;;
18320;SDS011;54904;54.350;18.664;2023-10-19T08:05:34;1.47;;;1.30;;
18320;SDS011;54904;54.350;18.664;2023-10-19T08:08:03;1.73;;;0.90;;
18320;SDS011;54904;54.350;18.664;2023-10-19T08:10:31;1.20;;;1.10;;
18320;SDS011;54904;54.350;18.664;2023-10-19T08:12:59;0.80;;;0.80;;
18320;SDS011;54904;54.350;18.664;2023-10-19T08:15:27;1.00;;;0.90;;
18320;SDS011;54904;54.350;18.664;2023-10-19T08:17:55;0.80;;;0.80;;
18320;SDS011;54904;54.350;18.664;2023-10-19T08:20:24;2.13;;;0.90;;
18320;SDS011;54904;54.350;18.664;2023-10-19T08:22:56;0.70;;;0.70;;
18320;SDS011;54904;54.350;18.664;2023-10-19T08:25:26;0.80;;;0.80;;
18320;SDS011;54904;54.350;18.664;2023-10-19T08:27:54;1.33;;;1.13;;
18320;SDS011;54904;54.350;18.664;2023-10-19T08:30:23;2.30;;;1.23;;
18320;SDS011;54904;54.350;18.664;2023-10-19T08:32:50;1.93;;;1.30;;
18320;SDS011;54904;54.350;18.664;2023-10-19T08:35:19;1.23;;;1.13;;
18320;SDS011;54904;54.350;18.664;2023-10-19T08:37:51;1.37;;;1.27;;
18320;SDS011;54904;54.350;18.664;2023-10-19T08:40:18;1.30;;;1.20;;
18320;SDS011;54904;54.350;18.664;2023-10-19T08:42:47;1.00;;;1.00;;
18320;SDS011;54904;54.350;18.664;2023-10-19T08:45:14;1.40;;;1.20;;
18320;SDS011;54904;54.350;18.664;2023-10-19T08:47:43;0.80;;;0.80;;
18320;SDS011;54904;54.350;18.664;2023-10-19T08:50:15;1.73;;;0.97;;
18320;SDS011;54904;54.350;18.664;2023-10-19T08:52:46;0.80;;;0.80;;
18320;SDS011;54904;54.350;18.664;2023-10-19T08:55:16;0.90;;;0.90;;
18320;SDS011;54904;54.350;18.664;2023-10-19T08:57:43;1.83;;;0.90;;
18320;SDS011;54904;54.350;18.664;2023-10-19T09:00:11;1.10;;;1.00;;
18320;SDS011;54904;54.350;18.664;2023-10-19T09:02:42;1.63;;;1.10;;
18320;SDS011;54904;54.350;18.664;2023-10-19T09:05:10;1.53;;;1.00;;
18320;SDS011;54904;54.350;18.664;2023-10-19T09:07:45;2.37;;;1.17;;
18320;SDS011;54904;54.350;18.664;2023-10-19T09:10:21;0.77;;;0.77;;
18320;SDS011;54904;54.350;18.664;2023-10-19T09:13:00;1.10;;;0.97;;
18320;SDS011;54904;54.350;18.664;2023-10-19T09:15:28;0.80;;;0.80;;
18320;SDS011;54904;54.350;18.664;2023-10-19T09:17:57;4.13;;;1.27;;
18320;SDS011;54904;54.350;18.664;2023-10-19T09:20:24;0.70;;;0.70;;
18320;SDS011;54904;54.350;18.664;2023-10-19T09:22:53;1.37;;;1.00;;
18320;SDS011;54904;54.350;18.664;2023-10-19T09:25:23;2.47;;;0.87;;
18320;SDS011;54904;54.350;18.664;2023-10-19T09:27:50;1.10;;;1.00;;
18320;SDS011;54904;54.350;18.664;2023-10-19T09:30:18;1.03;;;0.90;;
18320;SDS011;54904;54.350;18.664;2023-10-19T09:32:48;24.23;;;4.30;;
18320;SDS011;54904;54.350;18.664;2023-10-19T09:35:15;6.93;;;2.50;;
18320;SDS011;54904;54.350;18.664;2023-10-19T09:37:44;3.50;;;2.20;;
18320;SDS011;54904;54.350;18.664;2023-10-19T09:40:12;7.67;;;2.10;;
18320;SDS011;54904;54.350;18.664;2023-10-19T09:42:42;4.57;;;1.73;;
18320;SDS011;54904;54.350;18.664;2023-10-19T09:45:13;6.83;;;1.50;;
18320;SDS011;54904;54.350;18.664;2023-10-19T09:47:46;3.07;;;1.23;;
18320;SDS011;54904;54.350;18.664;2023-10-19T09:50:16;0.87;;;0.87;;
18320;SDS011;54904;54.350;18.664;2023-10-19T09:52:44;26.07;;;1.80;;
18320;SDS011;54904;54.350;18.664;2023-10-19T09:55:12;10.27;;;1.33;;
18320;SDS011;54904;54.350;18.664;2023-10-19T09:57:50;1.77;;;1.10;;
18320;SDS011;54904;54.350;18.664;2023-10-19T10:00:24;1.07;;;1.03;;
18320;SDS011;54904;54.350;18.664;2023-10-19T10:02:52;2.10;;;1.00;;
18320;SDS011;54904;54.350;18.664;2023-10-19T10:08:30;5.93;;;1.50;;
18320;SDS011;54904;54.350;18.664;2023-10-19T10:10:59;4.27;;;0.80;;
18320;SDS011;54904;54.350;18.664;2023-10-19T10:13:43;1.17;;;0.80;;
18320;SDS011;54904;54.350;18.664;2023-10-19T10:16:12;6.47;;;1.10;;
18320;SDS011;54904;54.350;18.664;2023-10-19T10:18:41;1.50;;;1.00;;
18320;SDS011;54904;54.350;18.664;2023-10-19T10:21:10;2.10;;;1.43;;
18320;SDS011;54904;54.350;18.664;2023-10-19T10:23:41;1.40;;;1.30;;
18320;SDS011;54904;54.350;18.664;2023-10-19T10:26:10;2.60;;;1.30;;
18320;SDS011;54904;54.350;18.664;2023-10-19T10:28:39;1.27;;;1.07;;
18320;SDS011;54904;54.350;18.664;2023-10-19T10:31:16;2.40;;;1.17;;
18320;SDS011;54904;54.350;18.664;2023-10-19T10:33:47;1.07;;;1.07;;
18320;SDS011;54904;54.350;18.664;2023-10-19T10:36:17;1.30;;;0.90;;
18320;SDS011;54904;54.350;18.664;2023-10-19T10:38:45;21.03;;;3.27;;
18320;SDS011;54904;54.350;18.664;2023-10-19T10:41:19;2.30;;;2.03;;
18320;SDS011;54904;54.350;18.664;2023-10-19T10:43:47;2.80;;;1.90;;
18320;SDS011;54904;54.350;18.664;2023-10-19T10:46:19;1.40;;;1.30;;
18320;SDS011;54904;54.350;18.664;2023-10-19T10:48:50;1.30;;;1.20;;
18320;SDS011;54904;54.350;18.664;2023-10-19T10:51:18;2.63;;;1.63;;
18320;SDS011;54904;54.350;18.664;2023-10-19T10:53:48;2.07;;;1.20;;
18320;SDS011;54904;54.350;18.664;2023-10-19T10:56:17;1.20;;;1.10;;
18320;SDS011;54904;54.350;18.664;2023-10-19T10:58:45;1.63;;;1.40;;
18320;SDS011;54904;54.350;18.664;2023-10-19T11:01:12;3.33;;;3.03;;
18320;SDS011;54904;54.350;18.664;2023-10-19T11:03:41;5.17;;;3.03;;
18320;SDS011;54904;54.350;18.664;2023-10-19T11:06:09;3.03;;;2.83;;
18320;SDS011;54904;54.350;18.664;2023-10-19T11:08:37;3.10;;;2.80;;
18320;SDS011;54904;54.350;18.664;2023-10-19T11:11:06;2.07;;;1.90;;
18320;SDS011;54904;54.350;18.664;2023-10-19T11:13:36;2.07;;;1.70;;
18320;SDS011;54904;54.350;18.664;2023-10-19T11:16:04;1.20;;;1.10;;
18320;SDS011;54904;54.350;18.664;2023-10-19T11:18:33;1.50;;;1.40;;
18320;SDS011;54904;54.350;18.664;2023-10-19T11:21:07;1.07;;;1.07;;
18320;SDS011;54904;54.350;18.664;2023-10-19T11:23:40;2.20;;;1.77;;
18320;SDS011;54904;54.350;18.664;2023-10-19T11:26:08;1.70;;;1.60;;
18320;SDS011;54904;54.350;18.664;2023-10-19T11:28:36;5.67;;;1.80;;
18320;SDS011;54904;54.350;18.664;2023-10-19T11:31:12;2.10;;;1.53;;
18320;SDS011;54904;54.350;18.664;2023-10-19T11:33:40;1.10;;;1.10;;
18320;SDS011;54904;54.350;18.664;2023-10-19T11:36:10;1.40;;;1.30;;
18320;SDS011;54904;54.350;18.664;2023-10-19T11:38:41;1.20;;;1.00;;
18320;SDS011;54904;54.350;18.664;2023-10-19T11:41:09;2.30;;;1.30;;
18320;SDS011;54904;54.350;18.664;2023-10-19T11:43:38;1.33;;;1.23;;
18320;SDS011;54904;54.350;18.664;2023-10-19T11:46:05;4.20;;;1.50;;
18320;SDS011;54904;54.350;18.664;2023-10-19T11:48:33;2.63;;;1.00;;
18320;SDS011;54904;54.350;18.664;2023-10-19T11:51:03;1.83;;;1.20;;
18320;SDS011;54904;54.350;18.664;2023-10-19T11:53:33;2.20;;;1.37;;
18320;SDS011;54904;54.350;18.664;2023-10-19T11:56:02;1.67;;;1.40;;
18320;SDS011;54904;54.350;18.664;2023-10-19T11:58:31;1.47;;;1.20;;
18320;SDS011;54904;54.350;18.664;2023-10-19T12:01:00;1.33;;;1.20;;
18320;SDS011;54904;54.350;18.664;2023-10-19T12:03:31;1.53;;;1.17;;
18320;SDS011;54904;54.350;18.664;2023-10-19T12:06:00;1.10;;;1.00;;
18320;SDS011;54904;54.350;18.664;2023-10-19T12:08:29;1.33;;;1.07;;
18320;SDS011;54904;54.350;18.664;2023-10-19T12:10:58;1.83;;;1.40;;
18320;SDS011;54904;54.350;18.664;2023-10-19T12:13:27;6.60;;;2.20;;
18320;SDS011;54904;54.350;18.664;2023-10-19T12:15:54;5.87;;;1.87;;
18320;SDS011;54904;54.350;18.664;2023-10-19T12:18:23;1.53;;;1.30;;
18320;SDS011;54904;54.350;18.664;2023-10-19T12:20:51;7.90;;;2.10;;
18320;SDS011;54904;54.350;18.664;2023-10-19T12:23:22;1.60;;;1.50;;
18320;SDS011;54904;54.350;18.664;2023-10-19T12:25:50;1.53;;;1.43;;
18320;SDS011;54904;54.350;18.664;2023-10-19T12:28:19;2.07;;;1.13;;
18320;SDS011;54904;54.350;18.664;2023-10-19T12:30:46;1.87;;;1.30;;
18320;SDS011;54904;54.350;18.664;2023-10-19T12:33:13;2.50;;;1.77;;
18320;SDS011;54904;54.350;18.664;2023-10-19T12:35:41;3.10;;;1.73;;
18320;SDS011;54904;54.350;18.664;2023-10-19T12:38:15;1.70;;;1.40;;
18320;SDS011;54904;54.350;18.664;2023-10-19T12:40:43;1.87;;;1.60;;
18320;SDS011;54904;54.350;18.664;2023-10-19T12:43:12;19.37;;;2.77;;
18320;SDS011;54904;54.350;18.664;2023-10-19T12:45:41;3.77;;;1.93;;
18320;SDS011;54904;54.350;18.664;2023-10-19T12:48:09;4.40;;;1.80;;
18320;SDS011;54904;54.350;18.664;2023-10-19T12:50:37;1.40;;;1.30;;
18320;SDS011;54904;54.350;18.664;2023-10-19T12:53:06;3.03;;;1.73;;
18320;SDS011;54904;54.350;18.664;2023-10-19T12:55:34;2.33;;;1.43;;
18320;SDS011;54904;54.350;18.664;2023-10-19T12:58:03;1.50;;;1.17;;
18320;SDS011;54904;54.350;18.664;2023-10-19T13:00:34;1.43;;;1.10;;
18320;SDS011;54904;54.350;18.664;2023-10-19T13:03:11;1.93;;;1.30;;
18320;SDS011;54904;54.350;18.664;2023-10-19T13:05:41;1.83;;;1.30;;
18320;SDS011;54904;54.350;18.664;2023-10-19T13:08:09;1.30;;;1.20;;
18320;SDS011;54904;54.350;18.664;2023-10-19T13:10:39;1.20;;;1.07;;
18320;SDS011;54904;54.350;18.664;2023-10-19T13:13:09;1.70;;;1.37;;
18320;SDS011;54904;54.350;18.664;2023-10-19T13:15:38;0.90;;;0.90;;
18320;SDS011;54904;54.350;18.664;2023-10-19T13:18:07;2.70;;;1.60;;
18320;SDS011;54904;54.350;18.664;2023-10-19T13:20:37;1.83;;;1.47;;
18320;SDS011;54904;54.350;18.664;2023-10-19T13:23:09;1.77;;;1.60;;
18320;SDS011;54904;54.350;18.664;2023-10-19T13:25:38;2.20;;;2.00;;
18320;SDS011;54904;54.350;18.664;2023-10-19T13:28:09;2.27;;;2.03;;
18320;SDS011;54904;54.350;18.664;2023-10-19T13:30:41;1.50;;;1.40;;
18320;SDS011;54904;54.350;18.664;2023-10-19T13:33:11;1.43;;;1.33;;
18320;SDS011;54904;54.350;18.664;2023-10-19T13:35:40;6.47;;;1.70;;
18320;SDS011;54904;54.350;18.664;2023-10-19T13:38:08;1.73;;;1.63;;
18320;SDS011;54904;54.350;18.664;2023-10-19T13:40:36;1.97;;;1.50;;
18320;SDS011;54904;54.350;18.664;2023-10-19T13:43:04;3.83;;;2.70;;
18320;SDS011;54904;54.350;18.664;2023-10-19T13:45:33;4.40;;;3.50;;
18320;SDS011;54904;54.350;18.664;2023-10-19T13:48:05;4.47;;;3.93;;
18320;SDS011;54904;54.350;18.664;2023-10-19T13:50:34;5.87;;;2.70;;
18320;SDS011;54904;54.350;18.664;2023-10-19T13:53:03;2.50;;;2.30;;
18320;SDS011;54904;54.350;18.664;2023-10-19T13:55:31;2.20;;;1.80;;
18320;SDS011;54904;54.350;18.664;2023-10-19T13:57:58;1.87;;;1.53;;
18320;SDS011;54904;54.350;18.664;2023-10-19T14:00:26;1.50;;;1.40;;
18320;SDS011;54904;54.350;18.664;2023-10-19T14:03:00;1.43;;;1.33;;
18320;SDS011;54904;54.350;18.664;2023-10-19T14:05:30;1.73;;;1.30;;
18320;SDS011;54904;54.350;18.664;2023-10-19T14:08:04;3.03;;;2.13;;
18320;SDS011;54904;54.350;18.664;2023-10-19T14:10:32;2.13;;;1.80;;
18320;SDS011;54904;54.350;18.664;2023-10-19T14:12:59;2.53;;;2.03;;
18320;SDS011;54904;54.350;18.664;2023-10-19T14:15:26;5.43;;;2.60;;
18320;SDS011;54904;54.350;18.664;2023-10-19T14:17:59;2.87;;;2.20;;
18320;SDS011;54904;54.350;18.664;2023-10-19T14:20:28;2.67;;;2.30;;
18320;SDS011;54904;54.350;18.664;2023-10-19T14:22:59;2.03;;;1.93;;
18320;SDS011;54904;54.350;18.664;2023-10-19T14:25:28;1.97;;;1.77;;
18320;SDS011;54904;54.350;18.664;2023-10-19T14:27:55;3.30;;;1.80;;
18320;SDS011;54904;54.350;18.664;2023-10-19T14:30:25;4.57;;;2.10;;
18320;SDS011;54904;54.350;18.664;2023-10-19T14:32:53;1.40;;;1.30;;
18320;SDS011;54904;54.350;18.664;2023-10-19T14:35:21;3.37;;;1.87;;
18320;SDS011;54904;54.350;18.664;2023-10-19T14:37:51;2.63;;;1.60;;
18320;SDS011;54904;54.350;18.664;2023-10-19T14:40:24;1.90;;;1.67;;
18320;SDS011;54904;54.350;18.664;2023-10-19T14:42:55;2.10;;;1.90;;
18320;SDS011;54904;54.350;18.664;2023-10-19T14:45:23;2.30;;;1.70;;
18320;SDS011;54904;54.350;18.664;2023-10-19T14:47:54;2.67;;;2.10;;
18320;SDS011;54904;54.350;18.664;2023-10-19T14:50:23;2.03;;;1.60;;